createdAt,value
2018-11-05T00:02:25.038Z,19.83
2018-11-05T00:04:56.409Z,22.57
2018-11-05T00:07:27.689Z,23.60
2018-11-05T00:09:59.591Z,28.27
2018-11-05T00:12:30.701Z,21.50
2018-11-05T00:15:02.714Z,29.53
2018-11-05T00:17:33.758Z,17.80
2018-11-05T00:20:07.057Z,20.27
2018-11-05T00:22:40.250Z,16.10
2018-11-05T00:25:13.553Z,26.33
2018-11-05T00:27:44.558Z,29.40
2018-11-05T00:30:16.602Z,25.23
2018-11-05T00:32:48.043Z,30.90
2018-11-05T00:35:20.109Z,23.13
2018-11-05T00:37:51.970Z,27.17
2018-11-05T00:40:23.542Z,25.60
2018-11-05T00:42:55.070Z,27.27
2018-11-05T00:45:26.729Z,35.47
2018-11-05T00:47:58.051Z,21.73
2018-11-05T00:50:29.620Z,16.67
2018-11-05T00:53:00.992Z,21.27
2018-11-05T00:55:33.059Z,20.50
2018-11-05T00:58:04.517Z,21.60
2018-11-05T01:00:36.805Z,28.23
2018-11-05T01:03:08.108Z,27.77
2018-11-05T01:05:39.573Z,20.50
2018-11-05T01:08:10.592Z,22.50
2018-11-05T01:10:42.673Z,18.90
2018-11-05T01:13:14.566Z,26.77
2018-11-05T01:15:46.135Z,23.50
2018-11-05T01:18:17.201Z,25.23
2018-11-05T01:20:49.046Z,20.00
2018-11-05T01:23:21.313Z,29.63
2018-11-05T01:25:52.894Z,32.73
2018-11-05T01:28:24.014Z,21.63
2018-11-05T01:30:55.463Z,18.83
2018-11-05T01:33:26.721Z,35.90
2018-11-05T01:35:58.106Z,18.50
2018-11-05T01:38:29.353Z,14.60
2018-11-05T01:41:00.727Z,28.17
2018-11-05T01:43:32.126Z,30.13
2018-11-05T01:46:03.502Z,15.07
2018-11-05T01:48:34.745Z,19.73
2018-11-05T01:51:06.605Z,13.13
2018-11-05T01:53:37.951Z,25.47
2018-11-05T01:56:09.522Z,22.70
2018-11-05T01:58:40.784Z,19.80
2018-11-05T02:01:12.334Z,20.33
2018-11-05T02:03:44.109Z,24.60
2018-11-05T02:06:15.814Z,15.50
2018-11-05T02:08:47.122Z,16.57
2018-11-05T02:11:18.618Z,29.33
2018-11-05T02:13:49.697Z,17.90
2018-11-05T02:16:21.257Z,36.53
2018-11-05T02:18:52.582Z,24.03
2018-11-05T02:21:24.480Z,26.53
2018-11-05T02:23:57.078Z,23.70
2018-11-05T02:26:28.822Z,32.70
2018-11-05T02:28:59.930Z,24.53
2018-11-05T02:31:31.517Z,25.53
2018-11-05T02:34:03.531Z,27.17
2018-11-05T02:36:35.030Z,18.33
2018-11-05T02:39:08.868Z,36.80
2018-11-05T02:41:40.505Z,29.30
2018-11-05T02:44:11.683Z,34.83
2018-11-05T02:46:43.243Z,27.30
2018-11-05T02:49:14.290Z,25.50
2018-11-05T02:51:45.986Z,23.23
2018-11-05T02:54:16.975Z,24.87
2018-11-05T02:56:48.714Z,20.93
2018-11-05T02:59:19.773Z,31.77
2018-11-05T03:01:51.553Z,24.13
2018-11-05T03:04:22.559Z,23.13
2018-11-05T03:06:54.159Z,20.00
2018-11-05T03:09:25.236Z,26.20
2018-11-05T03:11:56.878Z,31.33
2018-11-05T03:14:27.896Z,34.13
2018-11-05T03:16:59.569Z,31.67
2018-11-05T03:19:30.705Z,31.20
2018-11-05T03:22:02.469Z,33.43
2018-11-05T03:24:35.392Z,26.40
2018-11-05T03:27:08.073Z,36.70
2018-11-05T03:29:39.218Z,38.70
2018-11-05T03:32:10.776Z,30.33
2018-11-05T03:34:42.038Z,42.73
2018-11-05T03:37:13.834Z,32.27
2018-11-05T03:39:45.302Z,26.60
2018-11-05T03:42:16.710Z,26.03
2018-11-05T03:44:48.065Z,32.50
2018-11-05T03:47:19.891Z,30.67
2018-11-05T03:49:51.654Z,30.67
2018-11-05T03:52:23.132Z,29.10
2018-11-05T03:54:54.280Z,25.97
2018-11-05T03:57:25.938Z,22.50
2018-11-05T03:59:57.367Z,41.93
2018-11-05T04:02:28.890Z,43.93
2018-11-05T04:05:01.052Z,20.53
2018-11-05T04:07:32.515Z,37.33
2018-11-05T04:10:03.627Z,40.07
2018-11-05T04:12:35.016Z,41.70
2018-11-05T04:15:08.070Z,30.57
2018-11-05T04:17:40.140Z,34.87
2018-11-05T04:20:13.494Z,29.10
2018-11-05T04:22:45.615Z,33.67
2018-11-05T04:25:17.595Z,48.50
2018-11-05T04:27:49.314Z,37.47
2018-11-05T04:30:20.760Z,20.60
2018-11-05T04:32:52.411Z,27.70
2018-11-05T04:35:23.620Z,27.13
2018-11-05T04:37:55.493Z,27.63
2018-11-05T04:40:26.653Z,35.67
2018-11-05T04:42:58.243Z,39.20
2018-11-05T04:45:29.396Z,28.93
2018-11-05T04:48:01.720Z,22.83
2018-11-05T04:50:33.088Z,23.47
2018-11-05T04:53:07.643Z,33.77
2018-11-05T04:55:38.972Z,33.10
2018-11-05T04:58:10.779Z,40.13
2018-11-05T05:00:41.889Z,37.70
2018-11-05T05:03:13.177Z,21.90
2018-11-05T05:05:44.328Z,26.93
2018-11-05T05:08:16.094Z,38.53
2018-11-05T05:10:47.276Z,29.73
2018-11-05T05:13:18.656Z,49.67
2018-11-05T05:15:49.783Z,48.37
2018-11-05T05:18:21.981Z,40.43
2018-11-05T05:20:53.054Z,29.70
2018-11-05T05:23:25.116Z,28.10
2018-11-05T05:25:57.435Z,46.53
2018-11-05T05:28:29.142Z,31.40
2018-11-05T05:31:00.868Z,31.73
2018-11-05T05:33:32.575Z,33.03
2018-11-05T05:36:03.877Z,46.40
2018-11-05T05:41:11.689Z,48.93
2018-11-05T05:43:43.298Z,40.13
2018-11-05T05:46:14.638Z,42.40
2018-11-05T05:48:46.473Z,50.07
2018-11-05T05:51:17.806Z,41.23
2018-11-05T05:53:49.360Z,37.83
2018-11-05T05:56:20.628Z,41.27
2018-11-05T05:58:52.156Z,48.57
2018-11-05T06:01:23.456Z,50.07
2018-11-05T06:03:54.895Z,37.60
2018-11-05T06:06:26.263Z,54.40
2018-11-05T06:08:58.669Z,30.40
2018-11-05T06:11:30.865Z,43.20
2018-11-05T06:14:02.600Z,40.73
2018-11-05T06:16:34.075Z,49.17
2018-11-05T06:19:05.543Z,44.13
2018-11-05T06:21:36.941Z,58.07
2018-11-05T06:24:08.475Z,54.37
2018-11-05T06:26:40.921Z,50.87
2018-11-05T06:29:12.815Z,57.90
2018-11-05T06:31:44.039Z,45.47
2018-11-05T06:34:15.640Z,57.43
2018-11-05T06:36:46.779Z,54.03
2018-11-05T06:39:18.697Z,51.07
2018-11-05T06:41:50.122Z,48.27
2018-11-05T06:44:22.792Z,57.60
2018-11-05T06:46:54.024Z,58.63
2018-11-05T06:49:25.557Z,54.77
2018-11-05T06:51:56.819Z,59.53
2018-11-05T06:54:28.580Z,50.70
2018-11-05T06:56:59.818Z,55.10
2018-11-05T06:59:31.662Z,60.63
2018-11-05T07:02:03.704Z,55.57
2018-11-05T07:04:35.156Z,59.87
2018-11-05T07:07:06.461Z,63.03
2018-11-05T07:09:37.787Z,42.03
2018-11-05T07:12:09.253Z,49.37
2018-11-05T07:14:40.795Z,53.23
2018-11-05T07:17:12.075Z,47.23
2018-11-05T07:19:43.928Z,59.53
2018-11-05T07:22:14.956Z,60.40
2018-11-05T07:24:46.704Z,61.57
2018-11-05T07:27:19.699Z,65.13
2018-11-05T07:29:51.348Z,53.17
2018-11-05T07:32:22.862Z,55.73
2018-11-05T07:34:54.279Z,48.07
2018-11-05T07:37:25.593Z,59.37
2018-11-05T07:39:57.395Z,37.10
2018-11-05T07:42:28.948Z,55.77
2018-11-05T07:45:00.630Z,51.53
2018-11-05T07:47:31.737Z,57.60
2018-11-05T07:50:03.756Z,43.87
2018-11-05T07:52:35.003Z,45.60
2018-11-05T07:55:06.988Z,48.97
2018-11-05T07:57:38.759Z,47.77
2018-11-05T08:00:17.837Z,53.00
2018-11-05T08:02:50.481Z,46.17
2018-11-05T08:05:23.051Z,43.23
2018-11-05T08:07:55.256Z,44.53
2018-11-05T08:10:27.083Z,56.10
2018-11-05T08:12:58.432Z,58.07
2018-11-05T08:15:29.956Z,38.00
2018-11-05T08:18:01.250Z,46.00
2018-11-05T08:20:32.804Z,46.70
2018-11-05T08:23:05.227Z,42.33
2018-11-05T08:25:37.073Z,51.07
2018-11-05T08:28:09.599Z,41.10
2018-11-05T08:30:41.133Z,48.67
2018-11-05T08:33:12.336Z,37.73
2018-11-05T08:35:43.882Z,31.13
2018-11-05T08:38:15.065Z,38.93
2018-11-05T08:40:46.472Z,38.83
2018-11-05T08:43:17.865Z,41.90
2018-11-05T08:45:49.280Z,32.17
2018-11-05T08:48:20.442Z,30.63
2018-11-05T08:50:52.320Z,44.30
2018-11-05T08:53:23.930Z,43.83
2018-11-05T08:55:55.883Z,42.00
2018-11-05T08:58:27.189Z,45.93
2018-11-05T09:01:03.502Z,45.77
2018-11-05T09:03:34.798Z,52.00
2018-11-05T09:06:07.425Z,35.03
2018-11-05T09:08:38.716Z,43.97
2018-11-05T09:11:10.706Z,43.67
2018-11-05T09:13:41.806Z,36.70
2018-11-05T09:16:13.329Z,50.90
2018-11-05T09:18:44.532Z,47.40
2018-11-05T09:21:16.140Z,44.97
2018-11-05T09:23:47.767Z,40.33
2018-11-05T09:26:19.304Z,42.90
2018-11-05T09:28:51.495Z,33.53
2018-11-05T09:31:23.202Z,46.60
2018-11-05T09:33:54.595Z,38.03
2018-11-05T09:36:26.040Z,49.23
2018-11-05T09:38:57.383Z,36.30
2018-11-05T09:41:28.696Z,42.50
2018-11-05T09:44:00.037Z,40.37
2018-11-05T09:46:31.388Z,46.43
2018-11-05T09:49:02.941Z,55.47
2018-11-05T09:51:34.571Z,59.73
2018-11-05T09:54:06.386Z,48.73
2018-11-05T09:56:37.927Z,75.00
2018-11-05T09:59:09.439Z,42.37
2018-11-05T10:01:40.936Z,51.10
2018-11-05T10:04:12.391Z,48.50
2018-11-05T10:06:43.791Z,61.53
2018-11-05T10:09:15.105Z,46.40
2018-11-05T10:11:46.959Z,56.50
2018-11-05T10:14:18.183Z,60.90
2018-11-05T10:16:50.454Z,46.17
2018-11-05T10:19:21.526Z,70.97
2018-11-05T10:21:53.653Z,71.53
2018-11-05T10:24:25.478Z,57.87
2018-11-05T10:26:57.185Z,53.90
2018-11-05T10:29:29.375Z,61.77
2018-11-05T10:32:01.939Z,52.97
2018-11-05T10:34:33.219Z,58.90
2018-11-05T10:37:04.995Z,66.90
2018-11-05T10:39:36.144Z,48.63
2018-11-05T10:42:08.047Z,54.07
2018-11-05T10:44:39.720Z,57.90
2018-11-05T10:47:11.187Z,52.60
2018-11-05T10:49:42.544Z,67.40
2018-11-05T10:52:14.237Z,55.67
2018-11-05T10:54:45.564Z,58.27
2018-11-05T10:57:17.196Z,64.37
2018-11-05T10:59:48.386Z,67.33
2018-11-05T11:02:25.301Z,45.57
2018-11-05T11:04:57.287Z,54.60
2018-11-05T11:07:28.794Z,53.67
2018-11-05T11:10:00.244Z,67.83
2018-11-05T11:12:32.323Z,56.07
2018-11-05T11:15:04.322Z,46.13
2018-11-05T11:17:35.817Z,71.10
2018-11-05T11:20:07.456Z,49.63
2018-11-05T11:22:39.125Z,57.17
2018-11-05T11:25:11.037Z,50.97
2018-11-05T11:27:42.739Z,59.13
2018-11-05T11:30:16.435Z,58.37
2018-11-05T11:32:48.724Z,55.60
2018-11-05T11:35:20.220Z,48.13
2018-11-05T11:37:52.004Z,48.50
2018-11-05T11:40:24.124Z,59.40
2018-11-05T11:42:55.944Z,50.97
2018-11-05T11:45:30.164Z,45.50
2018-11-05T11:48:02.976Z,59.63
2018-11-05T11:50:34.491Z,47.43
2018-11-05T11:53:06.358Z,55.23
2018-11-05T11:55:37.699Z,48.13
2018-11-05T11:58:09.607Z,53.30
2018-11-05T12:00:40.801Z,37.53
2018-11-05T12:03:12.337Z,39.13
2018-11-05T12:05:43.512Z,44.00
2018-11-05T12:08:15.045Z,41.97
2018-11-05T12:10:46.139Z,48.03
2018-11-05T12:13:17.920Z,45.07
2018-11-05T12:15:49.257Z,43.50
2018-11-05T12:18:20.455Z,40.90
2018-11-05T12:20:51.660Z,45.60
2018-11-05T12:23:23.842Z,35.73
2018-11-05T12:25:55.299Z,29.10
2018-11-05T12:28:26.575Z,43.07
2018-11-05T12:30:59.272Z,49.90
2018-11-05T12:33:30.652Z,34.50
2018-11-05T12:36:01.948Z,40.70
2018-11-05T12:38:33.577Z,49.47
2018-11-05T12:41:06.544Z,38.70
2018-11-05T12:43:39.308Z,33.30
2018-11-05T12:46:11.028Z,38.80
2018-11-05T12:48:42.818Z,32.80
2018-11-05T12:51:13.977Z,32.67
2018-11-05T12:53:45.392Z,30.10
2018-11-05T12:56:16.549Z,37.90
2018-11-05T12:58:48.511Z,44.17
2018-11-05T13:01:20.560Z,40.50
2018-11-05T13:03:52.327Z,45.20
2018-11-05T13:06:23.630Z,51.10
2018-11-05T13:08:55.159Z,46.60
2018-11-05T13:11:26.631Z,43.50
2018-11-05T13:13:58.307Z,32.97
2018-11-05T13:16:29.604Z,35.60
2018-11-05T13:19:01.087Z,43.23
2018-11-05T13:21:32.392Z,39.27
2018-11-05T13:24:03.984Z,31.57
2018-11-05T13:26:35.981Z,38.33
2018-11-05T13:29:07.581Z,31.70
2018-11-05T13:31:40.404Z,29.67
2018-11-05T13:34:12.119Z,40.40
2018-11-05T13:36:43.389Z,35.50
2018-11-05T13:39:14.756Z,44.17
2018-11-05T13:41:45.981Z,42.97
2018-11-05T13:44:17.343Z,43.63
2018-11-05T13:46:49.069Z,37.53
2018-11-05T13:49:20.541Z,44.33
2018-11-05T13:51:51.773Z,32.70
2018-11-05T13:54:23.625Z,36.43
2018-11-05T13:56:55.238Z,31.47
2018-11-05T13:59:26.808Z,24.07
2018-11-05T14:01:58.244Z,24.37
2018-11-05T14:04:29.781Z,26.97
2018-11-05T14:07:00.926Z,27.47
2018-11-05T14:09:32.735Z,28.83
2018-11-05T14:12:03.955Z,28.57
2018-11-05T14:14:35.679Z,28.73
2018-11-05T14:17:07.163Z,19.60
2018-11-05T14:19:38.886Z,26.73
2018-11-05T14:22:10.204Z,24.53
2018-11-05T14:24:41.885Z,22.53
2018-11-05T14:27:13.204Z,23.20
2018-11-05T14:29:45.354Z,24.93
2018-11-05T14:32:17.554Z,18.67
2018-11-05T14:34:49.515Z,20.57
2018-11-05T14:37:21.564Z,23.00
2018-11-05T14:39:53.663Z,31.10
2018-11-05T14:42:24.866Z,19.67
2018-11-05T14:44:56.539Z,24.83
2018-11-05T14:47:28.084Z,17.00
2018-11-05T14:50:00.426Z,19.77
2018-11-05T14:52:31.608Z,16.30
2018-11-05T14:55:06.130Z,18.43
2018-11-05T14:57:37.231Z,23.27
2018-11-05T15:00:15.179Z,14.20
2018-11-05T15:02:47.319Z,17.37
2018-11-05T15:05:19.238Z,16.40
2018-11-05T15:07:50.947Z,22.47
2018-11-05T15:10:24.480Z,18.40
2018-11-05T15:12:55.685Z,21.00
2018-11-05T15:15:27.321Z,29.90
2018-11-05T15:17:58.822Z,26.63
2018-11-05T15:20:30.442Z,27.97
2018-11-05T15:23:03.066Z,17.63
2018-11-05T15:25:34.925Z,34.10
2018-11-05T15:28:07.979Z,27.37
2018-11-05T15:30:39.784Z,20.20
2018-11-05T15:33:12.346Z,21.00
2018-11-05T15:35:43.983Z,19.47
2018-11-05T15:38:15.427Z,15.77
2018-11-05T15:40:47.052Z,26.53
2018-11-05T15:43:18.343Z,20.67
2018-11-05T15:45:50.336Z,16.70
2018-11-05T15:48:21.600Z,27.03
2018-11-05T15:50:53.266Z,24.67
2018-11-05T15:53:24.967Z,22.40
2018-11-05T15:55:56.339Z,37.77
2018-11-05T15:58:27.630Z,19.30
2018-11-05T16:00:59.376Z,23.63
2018-11-05T16:03:30.637Z,21.63
2018-11-05T16:06:02.939Z,26.13
2018-11-05T16:08:34.455Z,23.80
2018-11-05T16:11:16.385Z,20.30
2018-11-05T16:13:54.704Z,25.23
2018-11-05T16:16:25.837Z,18.33
2018-11-05T16:18:56.699Z,22.63
2018-11-05T16:21:28.491Z,33.70
2018-11-05T16:23:59.427Z,39.20
2018-11-05T16:26:30.653Z,13.13
2018-11-05T16:29:02.611Z,18.17
2018-11-05T16:31:34.638Z,23.93
2018-11-05T16:34:07.091Z,23.23
2018-11-05T16:36:38.935Z,17.47
2018-11-05T16:39:15.185Z,14.23
2018-11-05T16:41:46.992Z,19.37
2018-11-05T16:44:18.815Z,11.77
2018-11-05T16:46:50.478Z,18.77
2018-11-05T16:49:21.899Z,18.30
2018-11-05T16:51:53.584Z,16.90
2018-11-05T16:54:25.033Z,15.23
2018-11-05T16:56:57.143Z,15.73
2018-11-05T16:59:28.506Z,22.33
2018-11-05T17:02:00.339Z,18.50
2018-11-05T17:04:31.452Z,12.83
2018-11-05T17:07:03.117Z,22.83
2018-11-05T17:09:34.515Z,25.73
2018-11-05T17:12:06.064Z,18.97
2018-11-05T17:14:37.552Z,20.90
2018-11-05T17:17:09.211Z,16.53
2018-11-05T17:19:40.483Z,26.80
2018-11-05T17:22:12.431Z,17.10
2018-11-05T17:24:44.440Z,22.13
2018-11-05T17:27:15.879Z,30.40
2018-11-05T17:29:47.201Z,22.77
2018-11-05T17:32:19.082Z,20.40
2018-11-05T17:34:51.995Z,19.13
2018-11-05T17:37:23.668Z,25.23
2018-11-05T17:39:55.047Z,21.50
2018-11-05T17:42:27.024Z,20.30
2018-11-05T17:44:58.782Z,23.90
2018-11-05T17:47:30.531Z,28.30
2018-11-05T17:50:01.948Z,22.03
2018-11-05T17:52:33.189Z,20.53
2018-11-05T17:55:04.704Z,23.73
2018-11-05T17:57:36.336Z,22.83
2018-11-05T18:00:09.307Z,19.73
2018-11-05T18:02:41.096Z,28.30
2018-11-05T18:05:12.294Z,26.50
2018-11-05T18:07:44.311Z,28.20
2018-11-05T18:10:15.767Z,27.73
2018-11-05T18:12:47.565Z,28.07
2018-11-05T18:15:18.672Z,18.63
2018-11-05T18:17:50.145Z,20.20
2018-11-05T18:20:21.419Z,19.17
2018-11-05T18:22:53.172Z,17.20
2018-11-05T18:25:24.524Z,25.00
2018-11-05T18:27:56.337Z,24.83
2018-11-05T18:30:27.608Z,23.23
2018-11-05T18:32:59.247Z,34.27
2018-11-05T18:35:32.012Z,23.27
2018-11-05T18:38:03.688Z,21.53
2018-11-05T18:40:35.080Z,19.60
2018-11-05T18:43:06.782Z,35.67
2018-11-05T18:45:38.555Z,20.63
2018-11-05T18:48:11.550Z,31.00
2018-11-05T18:50:42.720Z,21.63
2018-11-05T18:53:14.321Z,26.57
2018-11-05T18:55:45.831Z,25.37
2018-11-05T18:58:17.352Z,30.47
2018-11-05T19:00:48.797Z,22.07
2018-11-05T19:03:20.294Z,24.40
2018-11-05T19:05:51.650Z,30.80
2018-11-05T19:08:23.184Z,26.83
2018-11-05T19:10:54.914Z,31.97
2018-11-05T19:13:26.447Z,29.87
2018-11-05T19:15:57.976Z,23.00
2018-11-05T19:18:30.091Z,25.40
2018-11-05T19:21:01.613Z,30.37
2018-11-05T19:23:33.627Z,35.90
2018-11-05T19:26:05.052Z,39.90
2018-11-05T19:28:36.653Z,30.30
2018-11-05T19:31:08.682Z,27.70
2018-11-05T19:33:40.239Z,15.43
2018-11-05T19:36:13.605Z,26.53
2018-11-05T19:38:45.395Z,31.43
2018-11-05T19:41:17.052Z,29.13
2018-11-05T19:43:48.544Z,29.87
2018-11-05T19:46:19.725Z,25.00
2018-11-05T19:48:51.416Z,22.83
2018-11-05T19:51:22.752Z,24.07
2018-11-05T19:53:54.272Z,24.47
2018-11-05T19:56:25.705Z,21.33
2018-11-05T19:58:57.488Z,20.00
2018-11-05T20:01:28.677Z,26.10
2018-11-05T20:04:00.281Z,21.00
2018-11-05T20:06:31.492Z,22.37
2018-11-05T20:09:03.524Z,24.30
2018-11-05T20:11:34.888Z,36.67
2018-11-05T20:14:06.748Z,23.00
2018-11-05T20:16:38.132Z,20.73
2018-11-05T20:19:09.895Z,34.60
2018-11-05T20:21:41.316Z,35.80
2018-11-05T20:24:12.893Z,24.33
2018-11-05T20:26:44.088Z,24.30
2018-11-05T20:29:15.675Z,27.07
2018-11-05T20:31:46.952Z,30.83
2018-11-05T20:34:18.644Z,31.13
2018-11-05T20:36:50.725Z,30.93
2018-11-05T20:39:22.318Z,26.50
2018-11-05T20:41:53.535Z,22.37
2018-11-05T20:44:25.257Z,28.73
2018-11-05T20:46:56.337Z,25.33
2018-11-05T20:49:28.069Z,21.23
2018-11-05T20:51:59.177Z,23.47
2018-11-05T20:54:30.601Z,25.93
2018-11-05T20:57:02.089Z,23.43
2018-11-05T20:59:33.781Z,25.30
2018-11-05T21:02:05.050Z,24.60
2018-11-05T21:04:36.815Z,26.77
2018-11-05T21:07:08.073Z,21.63
2018-11-05T21:09:39.486Z,32.63
2018-11-05T21:12:10.719Z,26.50
2018-11-05T21:14:43.157Z,34.97
2018-11-05T21:17:14.313Z,20.40
2018-11-05T21:19:45.709Z,22.83
2018-11-05T21:22:16.977Z,30.07
2018-11-05T21:24:48.490Z,33.20
2018-11-05T21:27:19.637Z,27.33
2018-11-05T21:29:51.225Z,23.27
2018-11-05T21:32:22.765Z,30.33
2018-11-05T21:34:54.112Z,31.57
2018-11-05T21:37:26.422Z,22.63
2018-11-05T21:39:58.052Z,32.37
2018-11-05T21:42:29.345Z,23.27
2018-11-05T21:45:00.808Z,22.97
2018-11-05T21:47:32.249Z,25.87
2018-11-05T21:50:06.812Z,27.17
2018-11-05T21:52:38.453Z,24.67
2018-11-05T21:55:10.498Z,23.50
2018-11-05T21:57:42.833Z,34.43
2018-11-05T22:00:17.628Z,32.80
2018-11-05T22:02:53.689Z,19.43
2018-11-05T22:05:25.300Z,32.23
2018-11-05T22:07:56.739Z,33.33
2018-11-05T22:10:28.290Z,35.43
2018-11-05T22:12:59.648Z,24.90
2018-11-05T22:15:35.606Z,20.93
2018-11-05T22:18:07.033Z,30.63
2018-11-05T22:20:38.656Z,30.00
2018-11-05T22:23:09.901Z,30.63
2018-11-05T22:25:41.254Z,27.57
2018-11-05T22:28:12.495Z,23.27
2018-11-05T22:30:43.815Z,27.03
2018-11-05T22:33:15.264Z,26.77
2018-11-05T22:35:46.763Z,23.63
2018-11-05T22:38:19.804Z,24.70
2018-11-05T22:40:51.435Z,36.30
2018-11-05T22:43:22.524Z,31.03
2018-11-05T22:45:54.143Z,19.67
2018-11-05T22:48:25.279Z,40.60
2018-11-05T22:50:56.843Z,30.00
2018-11-05T22:53:27.961Z,35.43
2018-11-05T22:55:59.520Z,25.00
2018-11-05T22:58:30.550Z,22.20
2018-11-05T23:01:08.423Z,22.57
2018-11-05T23:03:39.747Z,29.00
2018-11-05T23:06:11.114Z,28.60
2018-11-05T23:08:42.560Z,24.90
2018-11-05T23:11:14.250Z,26.97
2018-11-05T23:13:45.371Z,31.33
2018-11-05T23:16:16.748Z,28.50
2018-11-05T23:18:47.807Z,26.80
2018-11-05T23:21:19.481Z,27.53
2018-11-05T23:23:50.691Z,26.67
2018-11-05T23:26:22.255Z,16.20
2018-11-05T23:28:53.321Z,27.60
2018-11-05T23:31:25.087Z,25.27
2018-11-05T23:33:56.368Z,32.23
2018-11-05T23:36:27.976Z,32.47
2018-11-05T23:39:00.360Z,26.63
2018-11-05T23:41:32.136Z,24.93
2018-11-05T23:44:03.600Z,40.60
2018-11-05T23:46:35.291Z,34.13
2018-11-05T23:49:06.817Z,33.23
2018-11-05T23:51:38.692Z,26.17
2018-11-05T23:54:10.233Z,34.00
2018-11-05T23:56:41.848Z,25.57
2018-11-05T23:59:13.236Z,25.20
